| time (UTC) | temp F | wind direction | speed knots | gust knots | rain 1hr in | rain 24hr in | rain mn in | humidity % | barometer mb |
| 20260509191528 | 78 | 357 | 5.2 | 10.4 | 0.00 | 0.50 | 0.00 | 62 | 1011.3 |
| 20260509190028 | 78 | 341 | 4.3 | 12.2 | 0.00 | 0.50 | 0.00 | 63 | 1011.2 |
| 20260509184528 | 78 | 343 | 4.3 | 13.9 | 0.00 | 0.50 | 0.00 | 62 | 1011.2 |
| 20260509183026 | 78 | 47 | 3.5 | 10.4 | 0.00 | 0.50 | 0.00 | 65 | 1011.4 |
| 20260509181523 | 77 | 325 | 4.3 | 11.3 | 0.00 | 0.50 | 0.00 | 64 | 1011.4 |
| 20260509180022 | 77 | 351 | 1.7 | 7.0 | 0.00 | 0.50 | 0.00 | 68 | 1011.5 |
| 20260509174518 | 76 | 38 | 3.5 | 10.4 | 0.00 | 0.50 | 0.00 | 69 | 1011.7 |
| 20260509173022 | 75 | 339 | 4.3 | 11.3 | 0.00 | 0.50 | 0.00 | 68 | 1011.9 |
| 20260509171509 | 75 | 334 | 2.6 | 8.7 | 0.00 | 0.50 | 0.00 | 71 | 1012.3 |
| 20260509170005 | 74 | 166 | 1.7 | 6.1 | 0.00 | 0.50 | 0.00 | 70 | 1012.3 |
| 20260509164600 | 73 | 262 | 1.7 | 8.7 | 0.00 | 0.50 | 0.00 | 65 | 1012.4 |
| 20260509164501 | 73 | 192 | 2.6 | 8.7 | 0.00 | 0.50 | 0.00 | 65 | 1012.4 |
| 20260509163103 | 72 | 280 | 1.7 | 7.8 | 0.00 | 0.50 | 0.00 | 50 | 1012.4 |
| 20260509161602 | 71 | 5 | 0.9 | 7.0 | 0.00 | 0.50 | 0.00 | 60 | 1012.5 |
| 20260509160051 | 69 | 239 | 1.7 | 5.2 | 0.00 | 0.50 | 0.00 | 63 | 1012.5 |
| 20260509154550 | 68 | 337 | 0.9 | 7.0 | 0.00 | 0.50 | 0.00 | 67 | 1012.4 |
| 20260509153055 | 67 | 294 | 0.9 | 4.3 | 0.00 | 0.50 | 0.00 | 74 | 1012.3 |
| 20260509151537 | 65 | 349 | 0.9 | 6.1 | 0.00 | 0.50 | 0.00 | 78 | 1012.2 |
| 20260509150035 | 64 | 283 | 0.0 | 4.3 | 0.00 | 0.50 | 0.00 | 84 | 1012.2 |
| 20260509144533 | 63 | 135 | 0.0 | 4.3 | 0.00 | 0.50 | 0.00 | 92 | 1012.2 |
| 20260509143029 | 61 | 269 | 0.0 | 4.3 | 0.00 | 0.50 | 0.00 | 94 | 1012.2 |
| 20260509141534 | 60 | 208 | 0.9 | 5.2 | 0.00 | 0.50 | 0.00 | 93 | 1012.2 |
| 20260509140023 | 59 | 199 | 0.0 | 3.5 | 0.00 | 0.50 | 0.00 | 94 | 1012.2 |
| 20260509134520 | 58 | 324 | 0.0 | 6.1 | 0.00 | 0.50 | 0.00 | 93 | 1012.0 |
| 20260509133021 | 58 | 206 | 0.9 | 3.5 | 0.00 | 0.50 | 0.00 | 93 | 1011.9 |
| 20260509131519 | 57 | 287 | 0.9 | 4.3 | 0.00 | 0.50 | 0.00 | 93 | 1011.7 |
| 20260509130016 | 56 | 317 | 0.9 | 3.5 | 0.00 | 0.50 | 0.00 | 93 | 1011.6 |
| 20260509124517 | 56 | 315 | 0.0 | 4.3 | 0.00 | 0.50 | 0.00 | 93 | 1011.8 |
| 20260509123015 | 56 | 268 | 0.0 | 4.3 | 0.00 | 0.50 | 0.00 | 93 | 1011.8 |
| 20260509121513 | 56 | 301 | 0.0 | 3.5 | 0.00 | 0.50 | 0.00 | 93 | 1011.7 |
| 20260509120012 | 56 | 187 | 0.0 | 5.2 | 0.00 | 0.50 | 0.00 | 93 | 1011.9 |
| 20260509114509 | 0 | 0.0 | 0.0 | 0.00 | 0.50 | 0.00 | 1011.7 | ||
| 20260509113004 | 0 | 0.0 | 0.0 | 0.00 | 0.50 | 0.00 | 1011.4 | ||
| 20260509111602 | 0 | 0.0 | 0.0 | 0.00 | 0.50 | 0.00 | 1011.0 | ||
| 20260509110055 | 0 | 0.0 | 0.0 | 0.00 | 0.50 | 0.00 | 1011.2 | ||
| 20260509104554 | 0 | 0.0 | 0.0 | 0.00 | 0.50 | 0.00 | 1011.3 | ||
| 20260509103055 | 0 | 0.0 | 0.0 | 0.00 | 0.50 | 0.00 | 1011.2 | ||
| 20260509101544 | 0 | 172 | 0.0 | 6.1 | 0.00 | 0.50 | 0.00 | 1010.9 | |
| 20260509100042 | 57 | 214 | 0.9 | 4.3 | 0.00 | 0.50 | 0.00 | 93 | 1011.1 |
| 20260509094553 | 57 | 252 | 0.0 | 3.5 | 0.00 | 0.50 | 0.00 | 93 | 1011.1 |
| 20260509093042 | 57 | 138 | 0.9 | 4.3 | 0.00 | 0.50 | 0.00 | 93 | 1011.0 |
| 20260509091547 | 56 | 286 | 0.9 | 5.2 | 0.00 | 0.50 | 0.00 | 93 | 1010.9 |
| 20260509090048 | 57 | 280 | 0.0 | 4.3 | 0.00 | 0.50 | 0.00 | 93 | 1010.6 |
| 20260509084536 | 57 | 302 | 0.0 | 2.6 | 0.00 | 0.50 | 0.00 | 93 | 1010.5 |
| 20260509083035 | 57 | 153 | 0.0 | 4.3 | 0.00 | 0.50 | 0.00 | 93 | 1010.5 |
| 20260509081534 | 57 | 314 | 0.0 | 2.6 | 0.00 | 0.50 | 0.00 | 93 | 1010.5 |
| 20260509080041 | 57 | 241 | 0.0 | 3.5 | 0.00 | 0.50 | 0.00 | 93 | 1010.5 |
| 20260509074538 | 57 | 186 | 0.9 | 4.3 | 0.00 | 0.50 | 0.00 | 92 | 1010.4 |
| 20260509073045 | 57 | 159 | 0.0 | 3.5 | 0.00 | 0.50 | 0.00 | 92 | 1010.6 |
| 20260509071530 | 57 | 284 | 0.0 | 2.6 | 0.00 | 0.50 | 0.00 | 92 | 1010.6 |
| 20260509070029 | 57 | 251 | 0.0 | 4.3 | 0.00 | 0.50 | 0.00 | 92 | 1010.6 |
| 20260509064529 | 57 | 234 | 0.9 | 4.3 | 0.00 | 0.50 | 0.00 | 92 | 1010.6 |
| 20260509063031 | 57 | 280 | 1.7 | 7.0 | 0.00 | 0.50 | 0.00 | 92 | 1010.5 |
| 20260509061528 | 57 | 156 | 0.9 | 7.0 | 0.00 | 0.50 | 0.00 | 92 | 1010.5 |
| 20260509060029 | 57 | 160 | 0.0 | 3.5 | 0.00 | 0.50 | 0.00 | 92 | 1010.5 |
| 20260509054527 | 57 | 188 | 0.9 | 3.5 | 0.00 | 0.50 | 0.00 | 92 | 1010.5 |
| 20260509053034 | 57 | 182 | 2.6 | 4.3 | 0.00 | 0.50 | 0.00 | 92 | 1010.5 |
| 20260509051522 | 57 | 175 | 0.9 | 5.2 | 0.00 | 0.50 | 0.00 | 92 | 1010.5 |
| 20260509050020 | 57 | 242 | 2.6 | 7.8 | 0.01 | 0.50 | 0.00 | 91 | 1010.4 |
| 20260509044519 | 57 | 146 | 2.6 | 5.2 | 0.02 | 0.50 | 0.50 | 91 | 1010.7 |
| 20260509043037 | 57 | 152 | 0.9 | 4.3 | 0.04 | 0.50 | 0.50 | 91 | 1011.0 |
| 20260509041518 | 58 | 168 | 0.9 | 3.5 | 0.13 | 0.50 | 0.50 | 91 | 1011.2 |
| 20260509040017 | 58 | 173 | 0.0 | 0.0 | 0.22 | 0.49 | 0.49 | 91 | 1011.3 |
| 20260509034516 | 58 | 152 | 0.0 | 0.0 | 0.28 | 0.48 | 0.48 | 90 | 1011.4 |
| 20260509033016 | 58 | 57 | 0.0 | 0.0 | 0.31 | 0.46 | 0.46 | 89 | 1011.7 |
| 20260509031514 | 58 | 22 | 0.0 | 1.7 | 0.28 | 0.36 | 0.36 | 89 | 1011.9 |
| 20260509030013 | 58 | 10 | 0.0 | 3.5 | 0.24 | 0.26 | 0.26 | 86 | 1012.0 |
| 20260509024513 | 59 | 34 | 0.0 | 1.7 | 0.17 | 0.19 | 0.19 | 75 | 1011.5 |
| 20260509023013 | 59 | 20 | 1.7 | 4.3 | 0.13 | 0.15 | 0.15 | 55 | 1011.7 |
| 20260509021511 | 60 | 48 | 0.0 | 7.0 | 0.05 | 0.07 | 0.07 | 56 | 1011.8 |
| 20260509020009 | 60 | 50 | 0.0 | 4.3 | 0.00 | 0.02 | 0.02 | 59 | 1011.6 |
| 20260509014518 | 60 | 14 | 0.0 | 3.5 | 0.00 | 0.02 | 0.02 | 64 | 1011.3 |
| 20260509013006 | 60 | 110 | 0.0 | 0.9 | 0.02 | 0.02 | 0.02 | 75 | 1010.5 |
| 20260509011505 | 61 | 84 | 0.0 | 0.9 | 0.02 | 0.02 | 0.02 | 81 | 1010.5 |
| 20260509010005 | 62 | 111 | 0.0 | 0.9 | 0.02 | 0.02 | 0.02 | 84 | 1010.3 |
| 20260509004504 | 63 | 52 | 0.9 | 6.1 | 0.02 | 0.02 | 0.02 | 87 | 1010.3 |
| 20260509003003 | 65 | 355 | 0.0 | 1.7 | 0.00 | 0.00 | 0.00 | 86 | 1010.5 |
| 20260509001503 | 68 | 38 | 0.0 | 0.9 | 0.00 | 0.00 | 0.00 | 83 | 1010.2 |
| 20260509000002 | 69 | 15 | 1.7 | 3.5 | 0.00 | 0.00 | 0.00 | 78 | 1009.9 |
| 20260508234501 | 69 | 339 | 0.0 | 0.9 | 0.00 | 0.00 | 0.00 | 81 | 1010.2 |
| 20260508233119 | 70 | 339 | 0.0 | 0.0 | 0.00 | 0.00 | 0.00 | 79 | 1010.1 |
| 20260508233002 | 70 | 339 | 0.0 | 0.0 | 0.00 | 0.00 | 0.00 | 79 | 1010.1 |
| 20260508231603 | 71 | 339 | 0.0 | 0.0 | 0.00 | 0.00 | 0.00 | 79 | 1010.2 |
| 20260508230058 | 73 | 339 | 0.0 | 0.0 | 0.00 | 0.00 | 0.00 | 73 | 1010.3 |
| 20260508224559 | 73 | 339 | 0.0 | 0.9 | 0.00 | 0.00 | 0.00 | 69 | 1010.4 |
| 20260508223056 | 74 | 339 | 0.9 | 4.3 | 0.00 | 0.00 | 0.00 | 69 | 1010.4 |
| 20260508221558 | 74 | 21 | 0.9 | 5.2 | 0.00 | 0.00 | 0.00 | 67 | 1010.2 |
| 20260508220055 | 74 | 353 | 0.9 | 2.6 | 0.00 | 0.00 | 0.00 | 66 | 1010.2 |
| 20260508214551 | 73 | 338 | 0.9 | 7.0 | 0.00 | 0.00 | 0.00 | 69 | 1010.5 |
| 20260508213054 | 73 | 61 | 4.3 | 8.7 | 0.00 | 0.00 | 0.00 | 69 | 1010.6 |
| 20260508211548 | 72 | 36 | 4.3 | 7.8 | 0.00 | 0.00 | 0.00 | 71 | 1010.8 |
| 20260508210048 | 73 | 19 | 3.5 | 7.0 | 0.00 | 0.00 | 0.00 | 70 | 1010.9 |
| 20260508204546 | 73 | 339 | 3.5 | 9.6 | 0.00 | 0.00 | 0.00 | 68 | 1011.1 |
| 20260508203043 | 73 | 353 | 2.6 | 5.2 | 0.00 | 0.00 | 0.00 | 68 | 1011.3 |
| 20260508201540 | 74 | 346 | 0.0 | 4.3 | 0.00 | 0.00 | 0.00 | 67 | 1011.4 |
| 20260508200040 | 73 | 294 | 0.0 | 2.6 | 0.00 | 0.00 | 0.00 | 68 | 1011.7 |
| 20260508194536 | 74 | 347 | 0.0 | 4.3 | 0.00 | 0.00 | 0.00 | 67 | 1011.9 |
| 20260508193032 | 74 | 348 | 0.9 | 4.3 | 0.00 | 0.00 | 0.00 | 67 | 1011.9 |